»·PEaware :: SWA9519 KPHX-KLAX

SWA9519 :: KPHX-KLAX

FLIGHT INFORMATION

Flight Status: Arrived
Operator:
Southwest Airlines
More flights by this operator :: More flights under this callsign
Pilot: Joe C. (19058)
Aircraft: BOEING 737-800
(B738)
More flights by this aircraft type
Origin: KPHX Phoenix Sky Harbor Intl
United States
Destination: KLAX Los Angeles Intl
United States
More flights between these airports :: More routes between these airports
Route: +KEENS2 MESSI ESTWD HLYWD1
File this flight plan on PilotEdge
Remarks:
Altitude:
(Current/Filed)
36,000ft
Speed:
(Current/Filed)
455kts
Departed: 07-Sep-18 04:17 PM
Arrived: 07-Sep-18 05:13 PM
Distance/Time
Traveled:
321nm/0:56
Distance/Time
To Go:
Arrived

Flight Plot

Page will automatically refresh every two minutes.

Flight plan parsing failed; only flown route is shown


Map Options




Map Legend


Flown Route
Filed Route
Departure Airport
Arrival Airport
Navaid (VOR, NDB)
Fix

Horizontal Profiles

Position Reports

Time Latitude Longitude Heading Altitude Ground
Speed
07-Sep-18 15:57 33.433506 -111.993906 334 1123ft 0kts
07-Sep-18 15:58 33.433506 -111.993906 334 1123ft 0kts
07-Sep-18 15:59 33.433506 -111.993906 334 1123ft 0kts
07-Sep-18 16:00 33.433506 -111.993906 334 1123ft 0kts
07-Sep-18 16:01 33.433506 -111.993906 334 1123ft 0kts
07-Sep-18 16:02 33.433506 -111.993906 334 1123ft 0kts
07-Sep-18 16:03 33.433506 -111.993906 334 1123ft 0kts
07-Sep-18 16:04 33.433506 -111.993906 334 1123ft 0kts
07-Sep-18 16:05 33.433506 -111.993906 334 1123ft 0kts
07-Sep-18 16:06 33.433506 -111.993906 334 1123ft 0kts
07-Sep-18 16:07 33.433506 -111.993906 334 1123ft 0kts
07-Sep-18 16:08 33.433506 -111.993906 334 1123ft 0kts
07-Sep-18 16:09 33.433436 -111.993866 334 1123ft 2kts
07-Sep-18 16:10 33.433256 -111.994191 142 1123ft 0kts
07-Sep-18 16:11 33.433256 -111.994191 142 1123ft 0kts
07-Sep-18 16:12 33.433256 -111.994191 142 1123ft 0kts
07-Sep-18 16:13 33.433256 -111.994191 142 1123ft 0kts
07-Sep-18 16:14 33.433256 -111.994191 142 1123ft 0kts
07-Sep-18 16:15 33.433256 -111.994191 142 1123ft 0kts
07-Sep-18 16:16 33.433256 -111.994191 142 1123ft 0kts
07-Sep-18 16:17 33.431999 -111.993431 180 1123ft 0kts
07-Sep-18 16:18 33.431999 -111.993431 180 1123ft 0kts
07-Sep-18 16:19 33.431050 -111.997257 269 1123ft 78kts
07-Sep-18 16:20 33.428213 -112.054003 250 2681ft 212kts
07-Sep-18 16:21 33.408113 -112.135360 257 4901ft 278kts
07-Sep-18 16:22 33.397946 -112.227622 278 8138ft 288kts
07-Sep-18 16:23 33.410899 -112.324275 281 10776ft 315kts
07-Sep-18 16:24 33.426318 -112.431198 281 13235ft 335kts
07-Sep-18 16:25 33.442450 -112.542534 282 15730ft 345kts
07-Sep-18 16:26 33.453438 -112.657115 273 18015ft 358kts
07-Sep-18 16:27 33.453998 -112.777899 274 20151ft 368kts
07-Sep-18 16:28 33.485700 -112.893268 296 21996ft 374kts
07-Sep-18 16:29 33.526639 -113.010274 295 24005ft 388kts
07-Sep-18 16:30 33.568609 -113.130706 296 25985ft 397kts
07-Sep-18 16:31 33.611306 -113.253705 296 27823ft 404kts
07-Sep-18 16:32 33.654775 -113.379412 296 29637ft 408kts
07-Sep-18 16:33 33.697356 -113.503126 296 31682ft 398kts
07-Sep-18 16:34 33.738983 -113.624478 296 33451ft 389kts
07-Sep-18 16:35 33.779421 -113.742856 296 34866ft 384kts
07-Sep-18 16:36 33.819719 -113.861209 296 35877ft 387kts
07-Sep-18 16:37 33.862019 -113.985505 295 35889ft 418kts
07-Sep-18 16:38 33.906134 -114.116501 292 35871ft 425kts
07-Sep-18 16:39 33.931106 -114.256929 285 35876ft 430kts
07-Sep-18 16:40 33.954401 -114.397531 285 35876ft 430kts
07-Sep-18 16:41 33.977641 -114.538584 285 35875ft 430kts
07-Sep-18 16:42 34.000928 -114.678930 285 35877ft 430kts
07-Sep-18 16:43 34.024114 -114.819785 285 35876ft 430kts
07-Sep-18 16:44 34.047219 -114.961029 285 35876ft 430kts
07-Sep-18 16:45 34.070214 -115.102142 284 35876ft 431kts
07-Sep-18 16:46 34.093237 -115.244237 283 35896ft 433kts
07-Sep-18 16:47 34.116057 -115.386317 283 36009ft 433kts
07-Sep-18 16:48 34.138717 -115.528424 283 36064ft 433kts
07-Sep-18 16:49 34.161245 -115.670802 282 36066ft 432kts
07-Sep-18 16:50 34.153597 -115.816212 265 36063ft 437kts
07-Sep-18 16:51 34.139495 -115.953581 266 34953ft 408kts
07-Sep-18 16:52 34.125979 -116.088601 266 32542ft 413kts
07-Sep-18 16:53 34.112051 -116.227934 265 30065ft 425kts
07-Sep-18 16:54 34.097404 -116.369522 265 27537ft 421kts
07-Sep-18 16:55 34.082449 -116.507810 264 25195ft 412kts
07-Sep-18 16:56 34.068476 -116.642148 265 23147ft 402kts
07-Sep-18 16:57 34.056314 -116.772582 264 21334ft 390kts
07-Sep-18 16:58 34.044177 -116.900582 263 19586ft 380kts
07-Sep-18 16:59 34.028202 -117.024582 261 17831ft 370kts
07-Sep-18 17:00 34.013549 -117.145845 262 16164ft 362kts
07-Sep-18 17:01 33.999365 -117.264241 262 14577ft 356kts
07-Sep-18 17:02 33.985526 -117.380430 262 13163ft 344kts
07-Sep-18 17:03 33.973455 -117.492881 273 11987ft 335kts
07-Sep-18 17:04 33.991676 -117.603615 282 11397ft 343kts
07-Sep-18 17:05 34.004112 -117.712544 262 8757ft 317kts
07-Sep-18 17:06 33.994780 -117.812181 261 8797ft 296kts
07-Sep-18 17:07 33.985027 -117.911102 262 8074ft 298kts
07-Sep-18 17:07 33.976907 -117.993441 261 6734ft 297kts
07-Sep-18 17:08 33.967036 -118.092144 261 5032ft 298kts
07-Sep-18 17:09 33.957972 -118.182371 261 3422ft 228kts
07-Sep-18 17:11 33.950537 -118.255167 262 2189ft 156kts
07-Sep-18 17:11 33.946532 -118.294142 263 1562ft 137kts
07-Sep-18 17:12 33.941870 -118.339331 263 840ft 135kts
07-Sep-18 17:13 33.937275 -118.384025 262 112ft 135kts
07-Sep-18 17:14 33.936063 -118.403073 291 119ft 0kts
07-Sep-18 17:15 33.937927 -118.404292 348 121ft 14kts
07-Sep-18 17:16 33.938032 -118.404329 335 121ft 0kts
07-Sep-18 17:17 33.938977 -118.407872 311 126ft 20kts

Navigation Log

Ident Type
Flight plan parsing failed, navigation log unavailable